Time;durP1;ratioP1;P1;durP2;ratioP2;P2;SDS_P1;SDS_P2;PMS_P1;PMS_P2;Temp;Humidity;BMP_temperature;BMP_pressure;BME280_temperature;BME280_humidity;BME280_pressure;Samples;Min_cycle;Max_cycle;Signal;HPM_P1;HPM_P2
2024/04/20 00:00:13;;;;;;;11.77;3.40;;;6.00;84.60;;;;;;5415506;26;20346;-76
2024/04/20 00:02:39;;;;;;;9.37;2.97;;;5.90;84.60;;;;;;5416469;26;20288;-75
2024/04/20 00:05:05;;;;;;;5.10;2.90;;;5.90;84.40;;;;;;5418005;26;20463;-74
2024/04/20 00:07:31;;;;;;;6.30;3.37;;;5.90;84.70;;;;;;5420421;26;20233;-76
2024/04/20 00:09:58;;;;;;;11.37;3.27;;;6.00;85.00;;;;;;5413415;26;21076;-75
2024/04/20 00:12:24;;;;;;;9.87;3.10;;;5.90;85.20;;;;;;5405907;26;20492;-77
2024/04/20 00:14:53;;;;;;;6.77;3.67;;;5.90;85.20;;;;;;5382839;26;21039;-79
2024/04/20 00:17:18;;;;;;;8.67;4.23;;;5.80;85.30;;;;;;5412099;26;20943;-74
2024/04/20 00:19:44;;;;;;;5.40;3.13;;;5.80;85.30;;;;;;5421714;26;20479;-78
2024/04/20 00:22:11;;;;;;;5.83;3.23;;;5.80;85.70;;;;;;5409688;26;20245;-74
2024/04/20 00:24:37;;;;;;;5.80;3.10;;;5.80;85.50;;;;;;5415390;26;20241;-75
2024/04/20 00:27:03;;;;;;;19.97;3.40;;;5.80;85.50;;;;;;5417357;26;20467;-76
2024/04/20 00:29:30;;;;;;;5.70;3.13;;;5.80;85.30;;;;;;5422265;26;20510;-79
2024/04/20 00:31:55;;;;;;;7.17;2.70;;;5.80;85.00;;;;;;5415314;26;20471;-74
2024/04/20 00:34:21;;;;;;;7.03;3.17;;;5.80;84.90;;;;;;5415101;26;20234;-76
2024/04/20 00:36:49;;;;;;;12.90;3.30;;;5.70;84.40;;;;;;5429324;26;20280;-75
2024/04/20 00:39:15;;;;;;;8.43;3.50;;;5.80;84.40;;;;;;5412581;26;20245;-74
2024/04/20 00:41:49;;;;;;;4.83;2.60;;;5.80;84.30;;;;;;5416369;26;20479;-74
2024/04/20 00:44:15;;;;;;;8.00;2.83;;;5.80;83.80;;;;;;5409725;26;20289;-78
2024/04/20 00:46:43;;;;;;;9.97;2.70;;;5.80;83.70;;;;;;5415365;26;20519;-77
2024/04/20 00:49:10;;;;;;;4.90;2.60;;;5.80;83.30;;;;;;5412922;26;20250;-77
2024/04/20 00:51:36;;;;;;;7.37;2.53;;;5.80;83.30;;;;;;5415766;26;20475;-75
2024/04/20 00:54:03;;;;;;;13.80;2.90;;;5.80;83.60;;;;;;5416565;26;20459;-74
2024/04/20 00:56:31;;;;;;;5.03;2.60;;;5.80;82.80;;;;;;5414762;26;20471;-75
2024/04/20 00:58:57;;;;;;;5.27;2.30;;;5.80;82.70;;;;;;5415875;26;20530;-72
2024/04/20 01:01:26;;;;;;;5.63;2.50;;;5.80;82.40;;;;;;5413472;26;20592;-76
2024/04/20 01:03:52;;;;;;;5.60;2.73;;;5.80;82.70;;;;;;5413563;26;20534;-75
2024/04/20 01:06:17;;;;;;;7.53;3.03;;;5.90;82.40;;;;;;5418093;26;21043;-74
2024/04/20 01:08:43;;;;;;;6.53;2.73;;;5.90;82.50;;;;;;5413682;26;20588;-76
2024/04/20 01:11:09;;;;;;;6.90;2.60;;;5.80;82.40;;;;;;5413635;26;20237;-76
2024/04/20 01:13:35;;;;;;;4.90;2.20;;;5.80;82.40;;;;;;5411143;26;20284;-74
2024/04/20 01:16:00;;;;;;;3.73;2.13;;;5.90;82.50;;;;;;5385565;26;20998;-77
2024/04/20 01:18:26;;;;;;;10.37;3.27;;;5.80;82.40;;;;;;5421000;26;20340;-73
2024/04/20 01:20:52;;;;;;;7.83;2.33;;;5.80;82.50;;;;;;5414381;26;20752;-77
2024/04/20 01:23:18;;;;;;;5.77;2.50;;;5.80;82.70;;;;;;5402900;26;20229;-75
2024/04/20 01:25:49;;;;;;;6.90;2.93;;;5.90;83.00;;;;;;5419218;26;20463;-75
2024/04/20 01:28:18;;;;;;;6.77;2.60;;;5.80;82.80;;;;;;5412489;26;20237;-77
2024/04/20 01:30:44;;;;;;;6.60;3.10;;;5.80;82.80;;;;;;5415703;26;21023;-78
2024/04/20 01:33:10;;;;;;;3.50;2.40;;;5.80;83.10;;;;;;5389281;26;20535;-76
2024/04/20 01:35:39;;;;;;;5.37;2.80;;;5.80;83.10;;;;;;5416609;26;20467;-75
2024/04/20 01:38:05;;;;;;;9.30;2.80;;;5.70;83.10;;;;;;5413846;26;20995;-75
2024/04/20 01:40:31;;;;;;;6.00;2.40;;;5.70;83.30;;;;;;5416942;26;20920;-75
2024/04/20 01:42:57;;;;;;;10.30;2.43;;;5.70;83.00;;;;;;5416762;26;20489;-75
2024/04/20 01:45:22;;;;;;;6.20;2.33;;;5.70;82.50;;;;;;5405921;26;20662;-74
2024/04/20 01:47:48;;;;;;;4.77;2.03;;;5.70;82.70;;;;;;5429733;26;20236;-73
2024/04/20 01:50:15;;;;;;;9.53;2.60;;;5.70;82.70;;;;;;5445150;26;20275;-77
2024/04/20 01:52:41;;;;;;;7.30;2.47;;;5.70;82.70;;;;;;5435427;26;20844;-74
2024/04/20 01:55:06;;;;;;;6.97;2.50;;;5.70;82.70;;;;;;5419953;26;20559;-76
2024/04/20 01:57:32;;;;;;;8.80;2.60;;;5.70;82.70;;;;;;5415561;26;20637;-74
2024/04/20 01:59:58;;;;;;;4.30;2.20;;;5.70;82.70;;;;;;5414194;26;20226;-73
2024/04/20 02:02:24;;;;;;;5.57;2.73;;;5.70;82.70;;;;;;5410242;26;20257;-74
2024/04/20 02:04:49;;;;;;;4.57;2.33;;;5.70;82.70;;;;;;5413058;26;20242;-76
2024/04/20 02:07:15;;;;;;;10.47;2.73;;;5.70;82.70;;;;;;5413558;26;20983;-74
2024/04/20 02:09:42;;;;;;;7.80;2.97;;;5.60;82.80;;;;;;5413148;26;20230;-73
2024/04/20 02:12:08;;;;;;;5.70;3.10;;;5.60;82.70;;;;;;5411301;26;20303;-74
2024/04/20 02:14:34;;;;;;;16.97;2.73;;;5.60;82.50;;;;;;5411037;26;20468;-77
2024/04/20 02:16:59;;;;;;;7.70;2.70;;;5.60;82.50;;;;;;5412842;26;20234;-76
2024/04/20 02:19:25;;;;;;;3.97;2.40;;;5.60;82.20;;;;;;5412752;26;20467;-75
2024/04/20 02:21:51;;;;;;;12.00;3.30;;;5.60;82.20;;;;;;5411166;26;20249;-72
2024/04/20 02:24:16;;;;;;;6.33;2.70;;;5.60;82.40;;;;;;5412635;26;20367;-74
2024/04/20 02:26:42;;;;;;;6.53;2.87;;;5.60;82.20;;;;;;5419772;26;20248;-74
2024/04/20 02:29:07;;;;;;;10.47;2.47;;;5.60;82.20;;;;;;5418161;26;20241;-75
2024/04/20 02:31:33;;;;;;;3.60;2.07;;;5.60;82.20;;;;;;5425619;26;20999;-77
2024/04/20 02:33:59;;;;;;;5.70;2.60;;;5.60;82.10;;;;;;5423657;26;20241;-73
2024/04/20 02:36:26;;;;;;;6.37;4.47;;;5.60;82.40;;;;;;5428455;26;20463;-72
2024/04/20 02:38:54;;;;;;;16.43;3.00;;;5.50;82.40;;;;;;5424971;26;20234;-75
2024/04/20 02:41:19;;;;;;;9.80;2.97;;;5.50;82.50;;;;;;5422911;26;20533;-74
2024/04/20 02:43:45;;;;;;;3.20;1.90;;;5.50;82.50;;;;;;5423435;26;21070;-73
2024/04/20 02:46:11;;;;;;;4.37;2.50;;;5.60;82.70;;;;;;5413400;26;20230;-75
2024/04/20 02:48:37;;;;;;;11.80;2.87;;;5.60;82.40;;;;;;5412802;26;20296;-73
2024/04/20 02:51:03;;;;;;;5.50;2.50;;;5.60;81.90;;;;;;5407923;26;20459;-77
2024/04/20 02:53:29;;;;;;;8.23;2.43;;;5.60;82.10;;;;;;5409156;26;20981;-73
2024/04/20 02:55:54;;;;;;;10.93;2.87;;;5.60;82.20;;;;;;5410323;26;20467;-74
2024/04/20 02:58:20;;;;;;;5.67;2.30;;;5.60;82.20;;;;;;5414235;26;20237;-74
2024/04/20 03:01:00;;;;;;;4.57;2.03;;;5.60;81.50;;;;;;5409384;26;20237;-75
2024/04/20 03:03:30;;;;;;;7.93;2.33;;;5.60;81.40;;;;;;5409277;26;20253;-72
2024/04/20 03:05:56;;;;;;;7.70;2.17;;;5.50;81.50;;;;;;5416206;26;20544;-74
2024/04/20 03:08:21;;;;;;;5.07;2.00;;;5.50;81.80;;;;;;5409434;26;20463;-75
2024/04/20 03:10:47;;;;;;;6.30;2.30;;;5.50;81.90;;;;;;5422248;26;20529;-74
2024/04/20 03:13:12;;;;;;;6.73;2.30;;;5.40;81.90;;;;;;5404084;26;20387;-74
2024/04/20 03:15:39;;;;;;;5.93;3.00;;;5.40;82.20;;;;;;5414341;26;20277;-75
2024/04/20 03:18:05;;;;;;;7.90;2.40;;;5.40;82.20;;;;;;5413153;26;20293;-74
2024/04/20 03:20:31;;;;;;;4.00;2.10;;;5.40;82.10;;;;;;5405341;26;20479;-71
2024/04/20 03:22:57;;;;;;;7.23;3.17;;;5.30;82.20;;;;;;5410250;26;20475;-71
2024/04/20 03:25:22;;;;;;;5.63;2.63;;;5.20;82.40;;;;;;5384158;26;20233;-70
2024/04/20 03:27:48;;;;;;;6.60;2.50;;;5.20;82.70;;;;;;5413316;26;20284;-71
2024/04/20 03:30:13;;;;;;;6.57;2.77;;;5.10;82.70;;;;;;5412822;26;20233;-69
2024/04/20 03:32:39;;;;;;;5.70;2.37;;;5.10;83.10;;;;;;5411966;26;20272;-71
2024/04/20 03:35:05;;;;;;;10.57;2.87;;;5.20;83.40;;;;;;5416646;26;20237;-70
2024/04/20 03:37:31;;;;;;;5.97;2.20;;;5.20;83.30;;;;;;5417967;26;20233;-70
2024/04/20 03:39:56;;;;;;;8.87;2.80;;;5.20;82.80;;;;;;5422305;26;20467;-71
2024/04/20 03:42:23;;;;;;;9.57;2.80;;;5.20;82.80;;;;;;5413980;26;21345;-71
2024/04/20 03:44:50;;;;;;;8.17;3.10;;;5.20;83.30;;;;;;5420244;26;20386;-71
2024/04/20 03:47:16;;;;;;;9.13;2.60;;;5.20;82.80;;;;;;5420922;26;20460;-73
2024/04/20 03:49:42;;;;;;;4.80;2.43;;;5.20;82.40;;;;;;5415566;26;21161;-71
2024/04/20 03:52:08;;;;;;;13.03;2.80;;;5.20;82.20;;;;;;5412245;26;20547;-72
2024/04/20 03:54:33;;;;;;;7.13;2.70;;;5.10;82.50;;;;;;5413849;26;21120;-71
2024/04/20 03:56:59;;;;;;;9.47;3.10;;;5.20;82.80;;;;;;5384871;26;20346;-72
2024/04/20 03:59:25;;;;;;;7.23;2.77;;;5.20;83.30;;;;;;5422388;26;20321;-72
2024/04/20 04:01:51;;;;;;;16.47;3.67;;;5.20;82.80;;;;;;5409448;26;21011;-70
2024/04/20 04:04:16;;;;;;;10.57;2.87;;;5.20;83.10;;;;;;5408921;26;20538;-70
2024/04/20 04:06:42;;;;;;;9.63;2.63;;;5.30;83.10;;;;;;5412943;26;20245;-71
2024/04/20 04:09:08;;;;;;;7.43;2.90;;;5.30;82.50;;;;;;5412781;26;20277;-70
2024/04/20 04:11:34;;;;;;;6.33;2.40;;;5.40;82.50;;;;;;5420860;26;20318;-75
2024/04/20 04:13:59;;;;;;;7.87;2.73;;;5.40;81.90;;;;;;5411971;26;20519;-71
2024/04/20 04:16:25;;;;;;;10.30;3.30;;;5.30;82.10;;;;;;5409195;26;20245;-72
2024/04/20 04:18:50;;;;;;;6.67;2.73;;;5.40;82.20;;;;;;5414677;26;20234;-70
2024/04/20 04:21:16;;;;;;;8.30;2.90;;;5.40;82.20;;;;;;5413438;26;20265;-74
2024/04/20 04:23:42;;;;;;;5.97;3.27;;;5.40;82.10;;;;;;5415450;26;20341;-71
2024/04/20 04:26:08;;;;;;;10.10;3.40;;;5.40;82.20;;;;;;5410583;26;20341;-71
2024/04/20 04:28:34;;;;;;;11.60;3.10;;;5.50;81.90;;;;;;5412231;26;20367;-71
2024/04/20 04:30:59;;;;;;;9.80;2.73;;;5.40;81.70;;;;;;5409496;26;20475;-70
2024/04/20 04:33:26;;;;;;;7.57;2.70;;;5.40;81.80;;;;;;5411611;26;20582;-72
2024/04/20 04:35:56;;;;;;;7.37;3.10;;;5.40;81.80;;;;;;5423299;26;20524;-70
2024/04/20 04:38:22;;;;;;;6.83;2.80;;;5.40;81.80;;;;;;5414807;26;20272;-71
2024/04/20 04:40:47;;;;;;;8.20;2.80;;;5.40;82.20;;;;;;5403444;26;20471;-71
2024/04/20 04:43:13;;;;;;;10.10;3.70;;;5.40;82.70;;;;;;5413157;26;20750;-72
2024/04/20 04:45:39;;;;;;;4.70;2.90;;;5.40;83.00;;;;;;5417243;26;20271;-73
2024/04/20 04:48:05;;;;;;;7.30;3.03;;;5.30;83.60;;;;;;5417844;26;20365;-71
2024/04/20 04:50:31;;;;;;;10.40;3.83;;;5.30;84.00;;;;;;5415510;26;20243;-72
2024/04/20 04:53:02;;;;;;;9.63;2.70;;;5.20;84.30;;;;;;5414577;26;20467;-71
2024/04/20 04:55:29;;;;;;;11.63;3.33;;;5.20;84.30;;;;;;5416303;26;20249;-71
2024/04/20 04:57:56;;;;;;;8.00;3.60;;;5.20;84.40;;;;;;5416791;26;20475;-71
2024/04/20 05:00:21;;;;;;;9.77;3.07;;;5.20;84.60;;;;;;5416239;26;20590;-71
2024/04/20 05:02:47;;;;;;;8.63;3.40;;;5.20;84.60;;;;;;5412688;26;20482;-71
2024/04/20 05:05:13;;;;;;;8.70;3.30;;;5.10;84.70;;;;;;5407430;26;20291;-71
2024/04/20 05:07:39;;;;;;;11.97;3.70;;;5.00;85.30;;;;;;5410620;26;20272;-71
2024/04/20 05:10:05;;;;;;;11.80;3.57;;;5.00;86.00;;;;;;5425695;26;20481;-73
2024/04/20 05:12:30;;;;;;;8.07;3.80;;;5.00;86.50;;;;;;5404173;26;20250;-72
2024/04/20 05:14:58;;;;;;;5.30;2.80;;;4.90;86.80;;;;;;5412969;26;20568;-71
2024/04/20 05:17:24;;;;;;;6.67;3.70;;;4.80;86.80;;;;;;5416138;26;20289;-74
2024/04/20 05:19:52;;;;;;;6.00;3.00;;;4.80;86.90;;;;;;5417377;26;20463;-75
2024/04/20 05:22:18;;;;;;;7.03;3.50;;;4.80;86.90;;;;;;5397151;26;20262;-74
2024/04/20 05:24:44;;;;;;;7.70;3.77;;;4.80;86.90;;;;;;5417111;26;20819;-71
2024/04/20 05:27:09;;;;;;;7.90;3.07;;;4.80;86.90;;;;;;5417840;26;20766;-72
2024/04/20 05:29:35;;;;;;;6.77;3.50;;;4.80;86.90;;;;;;5415681;26;20242;-71
2024/04/20 05:32:01;;;;;;;8.80;3.90;;;4.90;86.90;;;;;;5414380;26;20299;-71
2024/04/20 05:34:26;;;;;;;10.47;3.10;;;4.90;86.80;;;;;;5411266;26;20243;-73
2024/04/20 05:36:52;;;;;;;6.03;3.40;;;5.00;86.60;;;;;;5417856;26;20580;-72
2024/04/20 05:39:18;;;;;;;8.93;3.10;;;5.00;86.30;;;;;;5414128;26;20233;-73
2024/04/20 05:41:44;;;;;;;9.37;4.03;;;5.00;86.20;;;;;;5412107;26;20276;-69
2024/04/20 05:44:10;;;;;;;7.30;2.93;;;5.00;86.00;;;;;;5413381;26;20468;-69
2024/04/20 05:46:35;;;;;;;7.10;2.97;;;5.00;85.70;;;;;;5416864;26;20279;-73
2024/04/20 05:49:01;;;;;;;6.47;3.00;;;5.00;85.50;;;;;;5414332;26;20284;-70
2024/04/20 05:51:26;;;;;;;9.57;3.97;;;5.00;84.60;;;;;;5414483;26;20241;-70
2024/04/20 05:53:53;;;;;;;13.17;2.93;;;5.00;84.40;;;;;;5413377;26;20225;-71
2024/04/20 05:56:18;;;;;;;8.60;2.63;;;5.10;84.40;;;;;;5414298;26;20524;-72
2024/04/20 05:58:45;;;;;;;7.40;3.00;;;5.20;84.60;;;;;;5415637;26;20238;-70
2024/04/20 06:01:12;;;;;;;5.17;2.63;;;5.20;84.10;;;;;;5411259;26;20312;-71
2024/04/20 06:03:38;;;;;;;5.10;2.93;;;5.10;83.70;;;;;;5414812;26;20514;-71
2024/04/20 06:06:04;;;;;;;6.47;2.60;;;5.20;83.40;;;;;;5404496;26;20828;-71
2024/04/20 06:08:30;;;;;;;7.70;3.10;;;5.30;83.30;;;;;;5409619;26;20460;-71
2024/04/20 06:10:57;;;;;;;10.43;3.53;;;5.40;83.00;;;;;;5416304;26;20460;-71
2024/04/20 06:13:24;;;;;;;8.07;2.97;;;5.40;82.50;;;;;;5399907;26;20261;-73
2024/04/20 06:15:49;;;;;;;4.80;3.60;;;5.20;81.70;;;;;;5414300;26;20516;-71
2024/04/20 06:18:15;;;;;;;5.50;2.60;;;5.30;81.70;;;;;;5407039;26;20512;-72
2024/04/20 06:20:42;;;;;;;4.40;2.43;;;5.40;81.70;;;;;;5408714;26;20241;-72
2024/04/20 06:23:10;;;;;;;5.50;2.90;;;5.30;81.50;;;;;;5406932;26;20249;-73
2024/04/20 06:25:36;;;;;;;8.97;3.07;;;5.40;81.90;;;;;;5410221;26;20487;-73
2024/04/20 06:28:02;;;;;;;4.80;2.73;;;5.60;82.20;;;;;;5415873;26;21042;-70
2024/04/20 06:30:27;;;;;;;5.47;3.27;;;5.40;81.70;;;;;;5404635;26;20496;-73
2024/04/20 06:32:55;;;;;;;9.17;3.30;;;5.40;81.20;;;;;;5409711;26;20305;-73
2024/04/20 06:35:20;;;;;;;4.93;2.93;;;5.30;81.10;;;;;;5413263;26;20281;-73
2024/04/20 06:37:47;;;;;;;3.87;2.70;;;5.30;81.40;;;;;;5411806;26;20534;-72
2024/04/20 06:40:13;;;;;;;6.80;2.90;;;5.30;81.70;;;;;;5412968;26;20233;-72
2024/04/20 06:42:42;;;;;;;6.00;3.20;;;5.40;81.70;;;;;;5400613;26;20535;-72
2024/04/20 06:45:10;;;;;;;4.47;2.70;;;5.50;81.80;;;;;;5405551;26;20272;-73
2024/04/20 06:47:35;;;;;;;10.50;3.67;;;5.50;81.10;;;;;;5416790;26;21075;-72
2024/04/20 06:50:01;;;;;;;9.00;2.73;;;5.50;80.30;;;;;;5384875;26;20523;-72
2024/04/20 06:52:26;;;;;;;6.90;2.73;;;5.60;80.30;;;;;;5404459;26;20674;-72
2024/04/20 06:54:52;;;;;;;5.30;3.17;;;5.60;79.50;;;;;;5413174;26;20288;-72
2024/04/20 06:57:17;;;;;;;4.40;3.10;;;5.60;79.50;;;;;;5416646;26;20229;-72
2024/04/20 06:59:43;;;;;;;5.10;2.57;;;5.60;79.20;;;;;;5415250;26;20287;-73
2024/04/20 07:02:09;;;;;;;5.53;3.00;;;5.60;79.30;;;;;;5411095;26;20354;-72
2024/04/20 07:04:34;;;;;;;4.50;3.13;;;5.70;79.50;;;;;;5413654;26;20276;-73
2024/04/20 07:07:00;;;;;;;7.30;3.70;;;5.70;79.30;;;;;;5408926;26;20284;-73
2024/04/20 07:09:25;;;;;;;8.07;3.10;;;5.70;79.30;;;;;;5408852;26;20233;-72
2024/04/20 07:11:51;;;;;;;11.80;3.10;;;5.60;78.40;;;;;;5409194;26;20757;-74
2024/04/20 07:14:17;;;;;;;4.73;2.73;;;5.70;78.90;;;;;;5418038;26;20234;-72
2024/04/20 07:16:46;;;;;;;5.60;3.00;;;5.90;78.70;;;;;;5409043;26;20640;-73
2024/04/20 07:19:12;;;;;;;6.73;3.00;;;6.10;78.00;;;;;;5408403;26;20770;-71
2024/04/20 07:21:38;;;;;;;7.30;3.13;;;6.10;77.10;;;;;;5420922;26;20527;-73
2024/04/20 07:24:08;;;;;;;4.80;3.03;;;6.10;76.70;;;;;;5422956;26;20554;-70
2024/04/20 07:26:35;;;;;;;4.30;3.20;;;6.20;76.40;;;;;;5425209;26;20451;-71
2024/04/20 07:29:01;;;;;;;8.93;3.37;;;6.10;75.90;;;;;;5419759;26;20471;-71
2024/04/20 07:31:27;;;;;;;10.87;4.20;;;6.20;76.40;;;;;;5418661;26;20471;-73
2024/04/20 07:33:53;;;;;;;8.53;4.20;;;6.20;76.70;;;;;;5420570;26;20451;-71
2024/04/20 07:36:20;;;;;;;7.20;3.70;;;6.20;76.40;;;;;;5425144;26;20467;-73
2024/04/20 07:38:46;;;;;;;8.40;4.23;;;6.20;76.50;;;;;;5420876;26;20271;-71
2024/04/20 07:41:12;;;;;;;5.17;3.37;;;6.30;76.80;;;;;;5420571;26;20564;-71
2024/04/20 07:43:40;;;;;;;7.57;4.23;;;6.40;76.50;;;;;;5412635;26;20473;-71
2024/04/20 07:46:06;;;;;;;8.37;4.20;;;6.50;76.40;;;;;;5407128;26;20241;-74
2024/04/20 07:48:33;;;;;;;6.30;3.43;;;6.50;75.50;;;;;;5416894;26;20600;-72
2024/04/20 07:50:59;;;;;;;10.40;4.53;;;6.40;75.80;;;;;;5408237;26;20523;-73
2024/04/20 07:53:25;;;;;;;11.83;4.30;;;6.60;76.20;;;;;;5415685;26;20521;-73
2024/04/20 07:55:51;;;;;;;16.97;3.70;;;6.60;75.40;;;;;;5399656;26;20517;-73
2024/04/20 07:58:16;;;;;;;8.53;4.40;;;6.60;74.20;;;;;;5409928;26;20487;-73
2024/04/20 08:00:44;;;;;;;7.13;3.93;;;6.50;74.30;;;;;;5409083;26;20276;-71
2024/04/20 08:03:09;;;;;;;9.20;4.20;;;6.50;74.80;;;;;;5409796;26;20541;-70
2024/04/20 08:05:35;;;;;;;8.93;3.97;;;6.60;74.80;;;;;;5414307;26;20850;-72
2024/04/20 08:08:00;;;;;;;9.40;4.40;;;6.70;74.30;;;;;;5418040;26;20229;-73
2024/04/20 08:10:26;;;;;;;10.43;4.33;;;6.70;73.50;;;;;;5422143;26;20272;-73
2024/04/20 08:12:52;;;;;;;5.17;3.60;;;6.70;73.30;;;;;;5409929;26;20342;-72
2024/04/20 08:15:17;;;;;;;6.47;3.30;;;6.80;73.20;;;;;;5417125;26;20237;-72
2024/04/20 08:17:43;;;;;;;10.00;3.93;;;7.10;73.50;;;;;;5419582;26;20569;-72
2024/04/20 08:20:09;;;;;;;5.07;3.33;;;7.20;71.80;;;;;;5416071;26;20237;-71
2024/04/20 08:22:34;;;;;;;9.83;3.20;;;6.90;70.70;;;;;;5410718;26;20246;-70
2024/04/20 08:25:00;;;;;;;6.83;3.33;;;6.90;71.60;;;;;;5415517;26;20542;-73
2024/04/20 08:27:26;;;;;;;4.30;3.27;;;6.70;69.90;;;;;;5414402;26;20234;-71
2024/04/20 08:29:51;;;;;;;5.63;3.80;;;6.80;70.80;;;;;;5413889;26;20334;-71
2024/04/20 08:32:17;;;;;;;4.57;3.20;;;7.00;71.80;;;;;;5411201;26;20249;-71
2024/04/20 08:34:42;;;;;;;5.53;3.37;;;7.10;70.50;;;;;;5404698;26;20242;-70
2024/04/20 08:37:08;;;;;;;5.07;3.70;;;7.10;69.90;;;;;;5415224;26;20354;-72
2024/04/20 08:39:35;;;;;;;7.50;3.67;;;7.30;69.70;;;;;;5414873;26;20245;-72
2024/04/20 08:42:08;;;;;;;4.07;3.27;;;7.30;69.50;;;;;;5407093;26;20249;-72
2024/04/20 08:44:36;;;;;;;5.50;2.97;;;7.20;68.60;;;;;;5406906;26;20913;-74
2024/04/20 08:47:03;;;;;;;6.33;3.07;;;7.00;69.70;;;;;;5413746;26;21131;-74
2024/04/20 08:49:30;;;;;;;6.47;3.40;;;7.00;69.50;;;;;;5415405;26;20475;-73
2024/04/20 08:51:56;;;;;;;9.40;3.50;;;7.00;69.80;;;;;;5410643;26;20479;-73
2024/04/20 08:54:22;;;;;;;7.20;3.97;;;7.10;70.40;;;;;;5406313;26;20457;-72
2024/04/20 08:56:48;;;;;;;8.30;4.00;;;6.90;70.10;;;;;;5421149;26;20279;-71
2024/04/20 08:59:14;;;;;;;5.50;3.90;;;6.80;71.10;;;;;;5417282;26;20464;-72
2024/04/20 09:01:41;;;;;;;8.63;3.90;;;6.80;70.70;;;;;;5414162;26;20593;-71
2024/04/20 09:04:07;;;;;;;7.13;4.20;;;6.70;70.40;;;;;;5400796;26;20238;-71
2024/04/20 09:06:36;;;;;;;8.97;4.30;;;6.70;70.80;;;;;;5406577;26;20545;-73
2024/04/20 09:09:06;;;;;;;6.63;3.93;;;6.90;71.40;;;;;;5415544;26;20467;-73
2024/04/20 09:11:32;;;;;;;8.00;4.20;;;6.90;70.50;;;;;;5412921;26;20467;-72
2024/04/20 09:13:58;;;;;;;12.67;4.47;;;7.10;71.10;;;;;;5408560;26;20517;-73
2024/04/20 09:16:23;;;;;;;9.83;4.63;;;7.30;69.70;;;;;;5414252;26;20233;-72
2024/04/20 09:18:49;;;;;;;8.37;4.20;;;7.60;68.90;;;;;;5416787;26;20572;-72
2024/04/20 09:21:15;;;;;;;6.63;3.77;;;7.90;68.60;;;;;;5413074;26;20355;-70
2024/04/20 09:23:43;;;;;;;7.47;3.97;;;8.00;66.30;;;;;;5408436;26;20241;-70
2024/04/20 09:26:08;;;;;;;4.27;3.60;;;7.90;66.60;;;;;;5415279;26;20304;-72
2024/04/20 09:28:34;;;;;;;11.43;4.37;;;7.70;66.00;;;;;;5409625;26;20515;-69
2024/04/20 09:31:00;;;;;;;5.73;3.60;;;7.70;67.20;;;;;;5376985;26;20257;-69
2024/04/20 09:33:26;;;;;;;5.00;3.77;;;7.90;67.60;;;;;;5411635;26;20984;-72
2024/04/20 09:35:54;;;;;;;7.73;3.77;;;7.80;66.70;;;;;;5413617;26;20284;-70
2024/04/20 09:38:19;;;;;;;7.10;3.40;;;7.60;66.70;;;;;;5414258;26;20444;-71
2024/04/20 09:40:47;;;;;;;5.00;3.70;;;7.80;67.00;;;;;;5418813;26;20521;-71
2024/04/20 09:43:14;;;;;;;6.90;3.57;;;8.00;67.60;;;;;;5416639;26;20345;-71
2024/04/20 09:45:41;;;;;;;9.03;4.30;;;7.90;66.70;;;;;;5416150;26;20483;-72
2024/04/20 09:48:14;;;;;;;4.17;2.70;;;7.80;67.00;;;;;;5416779;26;20554;-70
2024/04/20 09:50:41;;;;;;;6.50;3.17;;;7.70;65.80;;;;;;5413226;26;20519;-70
2024/04/20 09:53:42;;;;;;;5.97;2.93;;;7.70;65.40;;;;;;5406884;26;20838;-71
2024/04/20 09:56:09;;;;;;;5.70;3.80;;;7.60;66.10;;;;;;5410391;26;20485;-73
2024/04/20 09:58:37;;;;;;;7.17;3.60;;;7.80;67.20;;;;;;5420173;26;20508;-71
2024/04/20 10:01:04;;;;;;;6.70;3.80;;;8.00;67.50;;;;;;5418692;26;20467;-72
2024/04/20 10:03:32;;;;;;;5.10;3.67;;;7.90;67.20;;;;;;5412414;26;20480;-72
2024/04/20 10:05:58;;;;;;;7.50;3.80;;;7.90;67.60;;;;;;5380243;26;20475;-71
2024/04/20 10:08:24;;;;;;;11.50;4.60;;;8.00;67.60;;;;;;5414224;26;20550;-73
2024/04/20 10:10:50;;;;;;;6.20;3.33;;;8.20;67.50;;;;;;5410225;26;20587;-72
2024/04/20 10:13:18;;;;;;;10.20;3.40;;;8.40;66.60;;;;;;5397253;26;20472;-73
2024/04/20 10:15:47;;;;;;;7.90;3.90;;;8.10;66.60;;;;;;5407027;26;20483;-73
2024/04/20 10:18:13;;;;;;;6.10;3.93;;;8.00;67.70;;;;;;5404117;26;21885;-73
2024/04/20 10:20:40;;;;;;;12.20;4.20;;;8.20;67.60;;;;;;5413619;26;20471;-72
2024/04/20 10:23:20;;;;;;;7.90;3.43;;;8.20;67.70;;;;;;5412238;26;20245;-73
2024/04/20 10:25:55;;;;;;;5.03;3.40;;;8.20;67.90;;;;;;5413455;26;21003;-71
2024/04/20 10:28:28;;;;;;;5.60;4.00;;;8.10;68.20;;;;;;5403351;26;20875;-71
2024/04/20 10:30:59;;;;;;;7.33;4.00;;;8.10;68.00;;;;;;5411052;26;20455;-72
2024/04/20 10:33:31;;;;;;;7.00;4.03;;;7.80;67.90;;;;;;5406424;26;21096;-70
2024/04/20 10:35:58;;;;;;;11.20;3.73;;;7.80;68.50;;;;;;5411835;26;20862;-72
2024/04/20 10:38:28;;;;;;;7.20;3.40;;;7.60;67.70;;;;;;5413443;26;20467;-73
2024/04/20 10:40:54;;;;;;;4.03;2.90;;;7.80;68.00;;;;;;5411394;26;20471;-73
2024/04/20 10:43:21;;;;;;;5.07;3.33;;;8.40;66.60;;;;;;5404821;26;20463;-71
2024/04/20 10:46:04;;;;;;;5.40;3.33;;;8.80;66.40;;;;;;5413591;26;20770;-72
2024/04/20 10:48:33;;;;;;;5.20;3.70;;;8.90;65.70;;;;;;5411749;26;20491;-72
2024/04/20 10:51:06;;;;;;;7.30;4.23;;;8.60;66.60;;;;;;5408974;26;20919;-72
2024/04/20 10:53:31;;;;;;;6.20;3.77;;;8.40;67.60;;;;;;5418229;26;20513;-72
2024/04/20 10:55:58;;;;;;;9.27;4.67;;;8.30;68.20;;;;;;5416556;26;21145;-75
2024/04/20 10:58:24;;;;;;;10.97;3.90;;;8.20;68.00;;;;;;5404836;26;20884;-74
2024/04/20 11:00:57;;;;;;;6.93;3.80;;;8.10;67.70;;;;;;5412902;26;20585;-74
2024/04/20 11:03:24;;;;;;;5.53;3.10;;;8.20;68.50;;;;;;5415194;26;21044;-75
2024/04/20 11:05:57;;;;;;;7.47;4.10;;;8.30;68.30;;;;;;5417987;26;20932;-73
2024/04/20 11:08:23;;;;;;;8.13;3.70;;;8.20;67.50;;;;;;5416674;26;20527;-74
2024/04/20 11:11:02;;;;;;;5.80;3.57;;;8.20;67.50;;;;;;5384483;26;20558;-72
2024/04/20 11:13:29;;;;;;;10.50;5.03;;;8.20;66.90;;;;;;5418522;26;20479;-73
2024/04/20 11:15:55;;;;;;;8.63;3.60;;;8.20;66.70;;;;;;5407818;26;20554;-73
2024/04/20 11:18:21;;;;;;;6.70;3.20;;;8.20;66.30;;;;;;5413284;26;20483;-74
2024/04/20 11:20:47;;;;;;;7.90;3.50;;;8.30;65.80;;;;;;5411292;26;20460;-74
2024/04/20 11:23:15;;;;;;;6.90;3.23;;;8.40;65.60;;;;;;5407287;26;20783;-72
2024/04/20 11:25:54;;;;;;;4.23;2.80;;;8.20;65.70;;;;;;5417428;26;20280;-74
2024/04/20 11:28:22;;;;;;;6.83;3.57;;;8.20;65.00;;;;;;5416428;26;20515;-72
2024/04/20 11:30:48;;;;;;;8.03;3.33;;;8.50;65.60;;;;;;5417863;26;20475;-72
2024/04/20 11:33:13;;;;;;;7.37;4.33;;;8.60;64.50;;;;;;5412576;26;20584;-72
2024/04/20 11:35:48;;;;;;;8.07;3.70;;;8.80;64.40;;;;;;5404611;26;20380;-74
2024/04/20 11:38:15;;;;;;;4.60;2.70;;;8.80;63.90;;;;;;5416637;26;20241;-73
2024/04/20 11:40:47;;;;;;;5.40;3.07;;;8.60;64.10;;;;;;5418327;26;20470;-73
2024/04/20 11:43:22;;;;;;;7.57;3.30;;;8.70;64.40;;;;;;5409895;26;20480;-76
2024/04/20 11:45:55;;;;;;;7.37;3.50;;;8.80;64.10;;;;;;5403203;26;20683;-71
2024/04/20 11:48:28;;;;;;;7.40;3.47;;;9.10;64.50;;;;;;5409506;26;20467;-74
2024/04/20 11:56:23;;;;;;;9.73;3.47;;;9.10;64.10;;;;;;5408189;26;20520;-73
2024/04/20 11:58:51;;;;;;;6.70;3.70;;;9.00;64.20;;;;;;5408275;26;20475;-74
2024/04/20 12:01:18;;;;;;;4.80;3.23;;;9.30;64.20;;;;;;5405504;26;21458;-72
2024/04/20 12:03:47;;;;;;;6.73;3.50;;;9.50;63.10;;;;;;5415672;26;20460;-70
2024/04/20 12:06:13;;;;;;;5.50;4.10;;;9.30;63.50;;;;;;5407473;26;21943;-73
2024/04/20 12:08:42;;;;;;;5.77;3.80;;;9.30;64.10;;;;;;5406049;26;20524;-73
2024/04/20 12:11:09;;;;;;;7.80;3.23;;;9.40;63.90;;;;;;5403793;26;20479;-72
2024/04/20 12:13:35;;;;;;;7.37;3.70;;;9.70;63.90;;;;;;5403693;26;20578;-75
2024/04/20 12:16:01;;;;;;;5.33;3.60;;;9.60;62.00;;;;;;5405920;26;20516;-73
2024/04/20 12:18:26;;;;;;;6.93;4.47;;;9.50;61.60;;;;;;5413892;26;20528;-74
2024/04/20 12:20:52;;;;;;;5.67;3.57;;;9.70;62.60;;;;;;5408205;26;21326;-73
2024/04/20 12:23:18;;;;;;;4.40;3.23;;;9.30;62.60;;;;;;5405701;26;20772;-74
2024/04/20 12:25:49;;;;;;;7.33;3.57;;;9.40;63.10;;;;;;5409796;26;20246;-72
2024/04/20 12:28:16;;;;;;;9.67;3.53;;;9.20;63.40;;;;;;5408799;26;20253;-73
2024/04/20 12:30:42;;;;;;;6.33;3.70;;;9.20;63.70;;;;;;5409093;26;21146;-74
2024/04/20 12:33:09;;;;;;;5.33;3.10;;;9.50;63.50;;;;;;5402675;26;20471;-73
2024/04/20 12:35:35;;;;;;;8.57;3.50;;;9.20;61.90;;;;;;5398837;26;20338;-72
2024/04/20 12:38:02;;;;;;;5.50;3.37;;;9.00;62.80;;;;;;5409177;26;20479;-72
2024/04/20 12:40:27;;;;;;;6.27;3.00;;;9.10;62.90;;;;;;5407051;26;20517;-71
2024/04/20 12:42:54;;;;;;;7.97;3.20;;;9.40;62.50;;;;;;5397379;26;20503;-72
2024/04/20 12:45:19;;;;;;;4.87;3.20;;;9.40;60.90;;;;;;5396221;26;20475;-73
2024/04/20 12:47:48;;;;;;;9.03;2.70;;;9.20;62.20;;;;;;5406680;26;21071;-72
2024/04/20 12:50:15;;;;;;;8.50;3.20;;;9.60;62.60;;;;;;5408818;26;20280;-73
2024/04/20 12:52:41;;;;;;;4.03;2.83;;;9.40;60.60;;;;;;5404167;26;20564;-74
2024/04/20 12:55:09;;;;;;;4.90;2.80;;;9.60;61.60;;;;;;5408839;26;20459;-75
2024/04/20 12:57:37;;;;;;;5.33;3.30;;;10.10;61.00;;;;;;5408897;26;20264;-71